11:46
Airports
Links
Donate
Help keep this website running!
PayPal
Bitcoin
METAR
KLAX 201053Z 23004KT 10SM OVC016 19/17 A2992 RMK AO2 SLP129 T01940167
Current Weather Conditions at KLAX
MVFR 10:53:00 20-08-17
Automated station
Altimeter:29.92 hg
Temp:19.4°c 66°f
Dew point:16.7°c 61°f
Wind:4 knots, 4.6 mph, 2 m/s, from 230°
Visibility:10.0 statute miles
1600(OVC) Overcast
Past METAR reports
MVFR 09:53:00 20-08-17
Automated station
Altimeter:29.92 hg
Temp:19.4°c 66°f
Dew point:16.1°c 61°f
Wind:3 knots, 3.5 mph, 2 m/s, from 250°
Visibility:10.0 statute miles
1600(OVC) Overcast
KLAX 200953Z 25003KT 10SM OVC016 19/16 A2992 RMK AO2 SLP130 T01940161
MVFR 08:53:00 20-08-17
Automated station
Altimeter:29.93 hg
Temp:19.4°c 66°f
Dew point:16.7°c 61°f
Wind:6 knots, 6.9 mph, 3 m/s, from 230°
Visibility:10.0 statute miles
2100(OVC) Overcast
1600(BKN) Broken
KLAX 200853Z 23006KT 10SM BKN016 OVC021 19/17 A2993 RMK AO2 SLP134 T01940167 58003
MVFR 07:53:00 20-08-17
Automated station
Altimeter:29.95 hg
Temp:18.9°c 64°f
Dew point:16.1°c 61°f
Wind:5 knots, 5.8 mph, 3 m/s, from 260°
Visibility:10.0 statute miles
2100(BKN) Broken
1600(SCT) Scattered
KLAX 200753Z 26005KT 10SM SCT016 BKN021 19/16 A2995 RMK AO2 SLP137 T01890161 402330189
VFR 06:53:00 20-08-17
Automated station
Altimeter:29.95 hg
Temp:18.9°c 64°f
Dew point:16.1°c 61°f
Wind:6 knots, 6.9 mph, 3 m/s, from 270°
Visibility:10.0 statute miles
1600(SCT) Scattered
KLAX 200653Z 27006KT 10SM SCT016 19/16 A2995 RMK AO2 SLP137 T01890161
VFR 05:53:00 20-08-17
Automated station
Altimeter:29.94 hg
Temp:19.4°c 66°f
Dew point:16.1°c 61°f
Wind:7 knots, 8.1 mph, 4 m/s, from 270°
Visibility:10.0 statute miles
1400(SCT) Scattered
KLAX 200553Z 27007KT 240V300 10SM SCT014 19/16 A2994 RMK AO2 SLP136 T01940161 10222 20194 51012
TAF
KLAX 201123Z 2012/2118 23006KT P6SM OVC015 FM201500 VRB03KT P6SM SCT015 OVC025 FM201900 25010KT P6SM OVC025 FM202100 26012KT P6SM SCT025 FM210200 26010KT P6SM OVC018 FM210800 VRB03KT P6SM OVC025
Forecast at KLAX
12:00 20-08-17 to 15:00 20-08-17
Wind:6 Knots from 230°
Visibility:6.21 statute miles
1500OVC Overcast
FM 15:00 20-08-17 to 19:00 20-08-17
Wind:3 Knots from 360°
Visibility:6.21 statute miles
1500SCT Scattered
2500OVC Overcast
FM 19:00 20-08-17 to 21:00 20-08-17
Wind:10 Knots from 250°
Visibility:6.21 statute miles
2500OVC Overcast
FM 21:00 20-08-17 to 02:00 21-08-17
Wind:12 Knots from 260°
Visibility:6.21 statute miles
2500SCT Scattered
FM 02:00 21-08-17 to 08:00 21-08-17
Wind:10 Knots from 260°
Visibility:6.21 statute miles
1800OVC Overcast
FM 08:00 21-08-17 to 18:00 21-08-17
Wind:3 Knots from 360°
Visibility:6.21 statute miles
2500OVC Overcast